Time;durP1;ratioP1;P1;durP2;ratioP2;P2;SDS_P1;SDS_P2;PMS_P1;PMS_P2;Temp;Humidity;BMP_temperature;BMP_pressure;BME280_temperature;BME280_humidity;BME280_pressure;Samples;Min_cycle;Max_cycle;Signal;HPM_P1;HPM_P2
2022/09/18 00:01:35;;;;;;;;;;;;;;;12.13;59.84;98811.69;4395018;32;19991;-90
2022/09/18 00:04:01;;;;;;;;;;;;;;;12.17;59.85;98810.59;4381225;32;19990;-90
2022/09/18 00:06:27;;;;;;;;;;;;;;;12.02;59.84;98819.22;4368559;32;19993;-91
2022/09/18 00:08:53;;;;;;;;;;;;;;;12.00;59.84;98811.50;4381073;32;19992;-91
2022/09/18 00:11:19;;;;;;;;;;;;;;;12.06;59.85;98807.69;4380982;32;19987;-90
2022/09/18 00:13:44;;;;;;;;;;;;;;;12.13;59.84;98796.03;4368548;32;19994;-90
2022/09/18 00:16:10;;;;;;;;;;;;;;;12.08;59.85;98798.06;4394748;32;19978;-90
2022/09/18 00:18:35;;;;;;;;;;;;;;;11.90;59.84;98800.72;4380917;32;19983;-90
2022/09/18 00:21:04;;;;;;;;;;;;;;;11.96;59.84;98802.16;4380729;32;19997;-90
2022/09/18 00:23:30;;;;;;;;;;;;;;;11.91;59.84;98794.56;4381048;32;20532;-90
2022/09/18 00:25:55;;;;;;;;;;;;;;;11.93;59.84;98797.09;4380940;32;19983;-91
2022/09/18 00:28:20;;;;;;;;;;;;;;;11.80;59.83;98791.66;4381046;32;19989;-90
2022/09/18 00:30:46;;;;;;;;;;;;;;;11.76;59.83;98797.94;4367771;32;27547;-91
2022/09/18 00:33:12;;;;;;;;;;;;;;;11.83;59.84;98801.97;4380994;32;20002;-91
2022/09/18 00:35:40;;;;;;;;;;;;;;;11.75;59.82;98808.44;4367794;32;30676;-90
2022/09/18 00:38:05;;;;;;;;;;;;;;;11.66;59.82;98807.16;4367586;32;20097;-90
2022/09/18 00:40:31;;;;;;;;;;;;;;;11.73;59.83;98802.47;4368075;32;20006;-89
2022/09/18 00:42:57;;;;;;;;;;;;;;;11.69;59.83;98807.84;4380442;32;20331;-91
2022/09/18 00:45:22;;;;;;;;;;;;;;;11.75;59.83;98796.25;4380910;32;20319;-90
2022/09/18 00:47:47;;;;;;;;;;;;;;;11.79;59.83;98796.97;4368035;32;19970;-91
2022/09/18 00:50:18;;;;;;;;;;;;;;;11.63;59.82;98802.94;4367636;32;24478;-91
2022/09/18 00:52:50;;;;;;;;;;;;;;;11.66;59.82;98801.94;4368064;32;20034;-90
2022/09/18 00:55:17;;;;;;;;;;;;;;;11.63;59.82;98799.50;4380743;32;19978;-90
2022/09/18 00:57:44;;;;;;;;;;;;;;;11.48;59.81;98801.12;4368084;32;19982;-90
2022/09/18 01:00:13;;;;;;;;;;;;;;;11.46;59.81;98816.00;4368196;32;20336;-90
2022/09/18 01:02:39;;;;;;;;;;;;;;;11.50;59.81;98809.69;4380913;32;20324;-90
2022/09/18 01:05:04;;;;;;;;;;;;;;;11.48;59.82;98818.53;4368209;32;19985;-89
2022/09/18 01:07:40;;;;;;;;;;;;;;;11.65;59.82;98816.75;4380463;32;20023;-90
2022/09/18 01:10:24;;;;;;;;;;;;;;;11.60;59.83;98823.97;4368108;32;20014;-90
2022/09/18 01:12:57;;;;;;;;;;;;;;;11.54;59.82;98828.63;4394686;32;20048;-90
2022/09/18 01:15:25;;;;;;;;;;;;;;;11.62;59.82;98822.13;4368505;32;19982;-90
2022/09/18 01:17:57;;;;;;;;;;;;;;;11.51;59.81;98831.38;4394612;32;19984;-89
2022/09/18 01:20:35;;;;;;;;;;;;;;;11.41;59.81;98838.84;4381644;32;20029;-90
2022/09/18 01:23:15;;;;;;;;;;;;;;;11.47;59.82;98833.31;4382756;32;20003;-90
2022/09/18 01:25:49;;;;;;;;;;;;;;;11.52;59.81;98841.72;4380306;32;20307;-90
2022/09/18 01:28:23;;;;;;;;;;;;;;;11.47;59.82;98848.09;4380328;32;19997;-90
2022/09/18 01:30:49;;;;;;;;;;;;;;;11.34;59.80;98850.47;4367799;32;19998;-89
2022/09/18 01:33:18;;;;;;;;;;;;;;;11.33;59.80;98848.78;4380366;32;20031;-90
2022/09/18 01:35:46;;;;;;;;;;;;;;;11.54;59.82;98871.16;4380134;32;19982;-89
2022/09/18 01:38:18;;;;;;;;;;;;;;;11.49;59.81;98864.50;4367717;32;19969;-90
2022/09/18 01:40:44;;;;;;;;;;;;;;;11.35;59.80;98873.84;4367769;32;20510;-90
2022/09/18 01:43:10;;;;;;;;;;;;;;;11.41;59.81;98879.69;4394101;32;20021;-89
2022/09/18 01:45:43;;;;;;;;;;;;;;;11.31;59.80;98880.13;4380462;32;19982;-90
2022/09/18 01:48:09;;;;;;;;;;;;;;;11.55;59.82;98892.88;4367665;32;19978;-90
2022/09/18 01:50:39;;;;;;;;;;;;;;;11.57;59.81;98897.06;4379579;32;19990;-90
2022/09/18 01:53:25;;;;;;;;;;;;;;;11.48;59.81;98905.34;4380068;32;19994;-90
2022/09/18 01:55:55;;;;;;;;;;;;;;;11.59;59.81;98910.91;4379710;32;20005;-90
2022/09/18 01:58:20;;;;;;;;;;;;;;;11.46;59.81;98909.81;4380578;32;20022;-89
2022/09/18 02:00:47;;;;;;;;;;;;;;;11.37;59.81;98913.72;4367641;32;19986;-89
2022/09/18 02:03:13;;;;;;;;;;;;;;;11.56;59.82;98920.59;4380294;32;20006;-89
2022/09/18 02:05:46;;;;;;;;;;;;;;;11.47;59.82;98926.28;4380224;32;20316;-89
2022/09/18 02:08:22;;;;;;;;;;;;;;;11.39;59.81;98929.28;4380140;32;20045;-90
2022/09/18 02:10:50;;;;;;;;;;;;;;;11.42;59.81;98925.66;4380155;32;20086;-90
2022/09/18 02:13:15;;;;;;;;;;;;;;;11.27;59.80;98932.44;4380062;32;20024;-88
2022/09/18 02:15:40;;;;;;;;;;;;;;;11.31;59.80;98937.44;4379886;32;20309;-90
2022/09/18 02:18:07;;;;;;;;;;;;;;;11.28;59.80;98929.78;4379694;32;19985;-90
2022/09/18 02:20:33;;;;;;;;;;;;;;;11.28;59.80;98942.78;4367527;32;20002;-90
2022/09/18 02:23:00;;;;;;;;;;;;;;;11.24;59.80;98950.84;4367257;32;19993;-89
2022/09/18 02:25:27;;;;;;;;;;;;;;;11.40;59.81;98945.75;4379905;32;19975;-89
2022/09/18 02:27:53;;;;;;;;;;;;;;;11.23;59.80;98950.00;4379923;32;20386;-89
2022/09/18 02:30:18;;;;;;;;;;;;;;;11.10;59.79;98956.69;4379807;32;19979;-89
2022/09/18 02:32:43;;;;;;;;;;;;;;;11.18;59.80;98956.34;4379774;32;20041;-89
2022/09/18 02:35:08;;;;;;;;;;;;;;;11.25;59.80;98958.56;4366918;32;21122;-89
2022/09/18 02:37:40;;;;;;;;;;;;;;;11.14;59.79;98965.22;4379812;32;20017;-90
2022/09/18 02:40:20;;;;;;;;;;;;;;;11.08;59.80;98964.56;4379918;32;19994;-90
2022/09/18 02:42:45;;;;;;;;;;;;;;;11.07;59.80;98965.47;4379944;32;20024;-89
2022/09/18 02:45:10;;;;;;;;;;;;;;;10.96;59.78;98972.13;4380367;32;20324;-89
2022/09/18 02:47:42;;;;;;;;;;;;;;;10.90;59.78;98972.41;4381320;32;19986;-89
2022/09/18 02:50:10;;;;;;;;;;;;;;;10.95;59.79;98976.47;4393393;32;20052;-89
2022/09/18 02:52:35;;;;;;;;;;;;;;;10.90;59.78;98975.00;4379229;32;20025;-89
2022/09/18 02:55:09;;;;;;;;;;;;;;;10.96;59.78;98985.97;4379149;32;20309;-89
2022/09/18 02:57:43;;;;;;;;;;;;;;;10.93;59.79;98983.53;4379208;32;20036;-89
2022/09/18 03:00:11;;;;;;;;;;;;;;;11.10;59.79;98976.69;4379456;32;19990;-89
2022/09/18 03:02:37;;;;;;;;;;;;;;;11.16;59.79;98974.66;4380819;32;20040;-89
2022/09/18 03:05:03;;;;;;;;;;;;;;;11.01;59.79;98980.56;4381492;32;19975;-89
2022/09/18 03:07:28;;;;;;;;;;;;;;;11.04;59.78;98980.41;4381193;32;19993;-89
2022/09/18 03:09:53;;;;;;;;;;;;;;;11.15;59.79;98979.94;4368517;32;20082;-89
2022/09/18 03:12:18;;;;;;;;;;;;;;;11.20;59.80;98989.22;4381015;32;20379;-89
2022/09/18 03:14:43;;;;;;;;;;;;;;;11.18;59.80;98995.41;4380842;32;20307;-89
2022/09/18 03:17:09;;;;;;;;;;;;;;;11.23;59.80;99001.25;4381260;32;19990;-88
2022/09/18 03:19:34;;;;;;;;;;;;;;;11.03;59.79;98999.56;4368700;32;19990;-89
2022/09/18 03:22:00;;;;;;;;;;;;;;;10.91;59.77;99000.97;4368480;32;20002;-90
2022/09/18 03:24:26;;;;;;;;;;;;;;;10.92;59.79;99004.41;4381269;32;20343;-89
2022/09/18 03:26:51;;;;;;;;;;;;;;;10.93;59.78;99006.12;4381302;32;20000;-89
2022/09/18 03:29:17;;;;;;;;;;;;;;;10.97;59.78;99010.25;4368672;32;20058;-89
2022/09/18 03:31:42;;;;;;;;;;;;;;;11.20;59.79;99007.44;4368580;32;19995;-89
2022/09/18 03:34:07;;;;;;;;;;;;;;;11.33;59.80;99005.94;4368423;32;19998;-89
2022/09/18 03:36:32;;;;;;;;;;;;;;;11.27;59.80;99013.22;4368409;32;20032;-89
2022/09/18 03:38:58;;;;;;;;;;;;;;;11.19;59.79;99020.53;4394602;32;19989;-89
2022/09/18 03:41:23;;;;;;;;;;;;;;;11.15;59.79;99012.03;4380650;32;23380;-89
2022/09/18 03:43:48;;;;;;;;;;;;;;;11.18;59.79;99011.03;4394862;32;20035;-89
2022/09/18 03:46:14;;;;;;;;;;;;;;;11.33;59.81;99018.97;4394775;32;19987;-90
2022/09/18 03:48:39;;;;;;;;;;;;;;;11.40;59.81;99023.91;4380970;32;19990;-89
2022/09/18 03:51:04;;;;;;;;;;;;;;;11.29;59.79;99027.00;4380455;32;27082;-89
2022/09/18 03:53:29;;;;;;;;;;;;;;;11.08;59.80;99027.06;4380876;32;19993;-89
2022/09/18 03:55:55;;;;;;;;;;;;;;;10.99;59.79;99024.06;4380714;32;20025;-90
2022/09/18 03:58:20;;;;;;;;;;;;;;;11.12;59.79;99026.94;4380876;32;19978;-89
2022/09/18 04:00:45;;;;;;;;;;;;;;;10.97;59.78;99038.91;4394824;32;19995;-90
2022/09/18 04:03:10;;;;;;;;;;;;;;;11.16;59.80;99034.56;4368178;32;25323;-89
2022/09/18 04:05:36;;;;;;;;;;;;;;;11.18;59.80;99042.31;4368838;32;19983;-89
2022/09/18 04:08:01;;;;;;;;;;;;;;;11.01;59.79;99037.84;4368674;32;19990;-90
2022/09/18 04:10:26;;;;;;;;;;;;;;;10.76;59.77;99040.69;4369499;32;19986;-90
2022/09/18 04:12:52;;;;;;;;;;;;;;;11.01;59.79;99046.50;4382214;32;20009;-89
2022/09/18 04:15:18;;;;;;;;;;;;;;;10.94;59.79;99044.25;4369330;32;20018;-90
2022/09/18 04:17:43;;;;;;;;;;;;;;;10.79;59.77;99048.37;4380992;32;19987;-90
2022/09/18 04:20:08;;;;;;;;;;;;;;;10.92;59.79;99048.69;4394673;32;19982;-90
2022/09/18 04:22:34;;;;;;;;;;;;;;;10.87;59.78;99050.63;4368421;32;19993;-90
2022/09/18 04:24:59;;;;;;;;;;;;;;;10.80;59.77;99044.00;4368331;32;20357;-90
2022/09/18 04:27:24;;;;;;;;;;;;;;;10.91;59.78;99047.00;4380311;32;20064;-90
2022/09/18 04:29:49;;;;;;;;;;;;;;;10.97;59.78;99046.72;4380637;32;20131;-89
2022/09/18 04:32:14;;;;;;;;;;;;;;;10.73;59.77;99043.44;4368205;32;20001;-90
2022/09/18 04:34:40;;;;;;;;;;;;;;;10.69;59.78;99042.72;4380343;32;19993;-89
2022/09/18 04:37:05;;;;;;;;;;;;;;;10.72;59.77;99049.56;4368237;32;19998;-90
2022/09/18 04:39:31;;;;;;;;;;;;;;;10.88;59.78;99047.09;4380035;32;21091;-89
2022/09/18 04:41:58;;;;;;;;;;;;;;;10.97;59.78;99052.78;4380820;32;19989;-90
2022/09/18 04:44:23;;;;;;;;;;;;;;;11.07;59.79;99045.38;4368452;32;19982;-90
2022/09/18 04:46:48;;;;;;;;;;;;;;;11.01;59.79;99054.31;4368096;32;19982;-89
2022/09/18 04:49:13;;;;;;;;;;;;;;;11.07;59.79;99058.41;4367983;32;20005;-90
2022/09/18 04:51:39;;;;;;;;;;;;;;;11.06;59.79;99062.75;4379864;32;27234;-90
2022/09/18 04:54:04;;;;;;;;;;;;;;;11.07;59.79;99066.22;4368102;32;20029;-89
2022/09/18 04:56:29;;;;;;;;;;;;;;;11.04;59.78;99068.97;4380588;32;19986;-90
2022/09/18 04:58:55;;;;;;;;;;;;;;;11.06;59.79;99073.19;4380595;32;19990;-90
2022/09/18 05:01:20;;;;;;;;;;;;;;;11.21;59.79;99076.03;4368246;32;20240;-89
2022/09/18 05:03:45;;;;;;;;;;;;;;;11.21;59.80;99071.66;4380642;32;19970;-89
2022/09/18 05:06:11;;;;;;;;;;;;;;;11.17;59.80;99075.31;4367945;32;20009;-89
2022/09/18 05:08:37;;;;;;;;;;;;;;;11.37;59.81;99075.25;4367997;32;20009;-90
2022/09/18 05:11:03;;;;;;;;;;;;;;;11.25;59.80;99072.34;4367924;32;20285;-90
2022/09/18 05:13:28;;;;;;;;;;;;;;;11.31;59.80;99077.28;4380595;32;19992;-89
2022/09/18 05:15:54;;;;;;;;;;;;;;;11.22;59.80;99075.09;4380332;32;19994;-90
2022/09/18 05:18:19;;;;;;;;;;;;;;;11.28;59.80;99080.88;4380160;32;19998;-89
2022/09/18 05:20:45;;;;;;;;;;;;;;;11.26;59.80;99084.47;4380484;32;20025;-90
2022/09/18 05:23:10;;;;;;;;;;;;;;;11.43;59.81;99096.75;4394240;32;19975;-89
2022/09/18 05:25:35;;;;;;;;;;;;;;;11.51;59.81;99081.59;4367182;32;20014;-90
2022/09/18 05:28:01;;;;;;;;;;;;;;;11.47;59.82;99086.09;4380376;32;20013;-89
2022/09/18 05:30:27;;;;;;;;;;;;;;;11.55;59.82;99093.56;4368624;32;19970;-89
2022/09/18 05:32:55;;;;;;;;;;;;;;;11.54;59.82;99087.50;4381027;32;20029;-89
2022/09/18 05:35:20;;;;;;;;;;;;;;;11.70;59.82;99087.63;4380991;32;19995;-89
2022/09/18 05:37:48;;;;;;;;;;;;;;;11.83;59.84;99091.41;4368945;32;19990;-89
2022/09/18 05:40:13;;;;;;;;;;;;;;;11.88;59.83;99094.63;4369495;32;21009;-90
2022/09/18 05:42:43;;;;;;;;;;;;;;;11.81;59.82;99090.59;4394342;32;20292;-89
2022/09/18 05:45:09;;;;;;;;;;;;;;;11.74;59.82;99097.00;4380404;32;19986;-89
2022/09/18 05:47:35;;;;;;;;;;;;;;;11.76;59.83;99084.72;4394126;32;19993;-90
2022/09/18 05:50:00;;;;;;;;;;;;;;;11.90;59.83;99089.34;4394151;32;19982;-89
2022/09/18 05:52:25;;;;;;;;;;;;;;;11.80;59.83;99091.50;4379986;32;19993;-89
2022/09/18 05:54:50;;;;;;;;;;;;;;;11.78;59.83;99087.25;4380353;32;20029;-89
2022/09/18 05:57:16;;;;;;;;;;;;;;;11.86;59.84;99090.41;4367042;32;26874;-89
2022/09/18 05:59:41;;;;;;;;;;;;;;;11.89;59.83;99091.09;4394008;32;19983;-89
2022/09/18 06:02:07;;;;;;;;;;;;;;;11.89;59.83;99098.06;4379715;32;21602;-89
2022/09/18 06:04:33;;;;;;;;;;;;;;;11.84;59.84;99085.25;4380363;32;20045;-89
2022/09/18 06:07:00;;;;;;;;;;;;;;;11.81;59.83;99094.97;4380277;32;19979;-89
2022/09/18 06:09:26;;;;;;;;;;;;;;;11.77;59.83;99096.00;4394144;32;20086;-89
2022/09/18 06:11:52;;;;;;;;;;;;;;;11.72;59.83;99092.78;4367611;32;20058;-88
2022/09/18 06:14:17;;;;;;;;;;;;;;;11.72;59.83;99103.19;4380234;32;19995;-89
2022/09/18 06:16:42;;;;;;;;;;;;;;;12.08;59.85;99101.50;4367452;32;20543;-89
2022/09/18 06:19:08;;;;;;;;;;;;;;;11.91;59.84;99094.47;4367190;32;20342;-89
2022/09/18 06:21:33;;;;;;;;;;;;;;;12.14;59.85;99103.78;4380031;32;20323;-89
2022/09/18 06:23:58;;;;;;;;;;;;;;;12.26;59.85;99118.84;4367484;32;19998;-88
2022/09/18 06:26:23;;;;;;;;;;;;;;;12.34;59.86;99110.66;4367402;32;20049;-90
2022/09/18 06:28:50;;;;;;;;;;;;;;;12.46;59.87;99115.25;4367441;32;20335;-89
2022/09/18 06:31:15;;;;;;;;;;;;;;;12.26;59.85;99116.22;4380185;32;20363;-88
2022/09/18 06:33:40;;;;;;;;;;;;;;;12.33;59.85;99115.94;4367387;32;20097;-89
2022/09/18 06:36:09;;;;;;;;;;;;;;;12.38;59.86;99119.19;4393498;32;20300;-89
2022/09/18 06:38:34;;;;;;;;;;;;;;;12.57;59.86;99119.97;4382349;32;19979;-89
2022/09/18 06:41:00;;;;;;;;;;;;;;;12.63;59.88;99118.78;4368572;32;19992;-89
2022/09/18 06:43:25;;;;;;;;;;;;;;;12.51;59.87;99118.47;4379835;32;19990;-89
2022/09/18 06:45:51;;;;;;;;;;;;;;;12.70;59.88;99112.34;4367405;32;20038;-89
2022/09/18 06:48:16;;;;;;;;;;;;;;;12.68;59.88;99111.56;4379742;32;20308;-88
2022/09/18 06:50:41;;;;;;;;;;;;;;;12.71;59.88;99096.59;4379541;32;19986;-89
2022/09/18 06:53:07;;;;;;;;;;;;;;;12.66;59.88;99109.03;4379629;32;20272;-89
2022/09/18 06:55:32;;;;;;;;;;;;;;;12.47;59.87;99106.50;4366994;32;19998;-89
2022/09/18 06:57:57;;;;;;;;;;;;;;;12.60;59.88;99112.81;4379658;32;19967;-90
2022/09/18 07:00:23;;;;;;;;;;;;;;;12.79;59.88;99104.91;4393591;32;20300;-88
2022/09/18 07:02:58;;;;;;;;;;;;;;;12.97;59.90;99094.41;4367718;32;20018;-90
2022/09/18 07:05:26;;;;;;;;;;;;;;;12.79;59.88;99089.22;4381017;32;19990;-90
2022/09/18 07:07:52;;;;;;;;;;;;;;;12.81;59.88;99113.50;4380194;32;20027;-88
2022/09/18 07:10:17;;;;;;;;;;;;;;;13.13;59.90;99101.34;4379450;32;20276;-88
2022/09/18 07:12:47;;;;;;;;;;;;;;;13.07;59.90;99108.69;4392193;32;32206;-89
2022/09/18 07:15:12;;;;;;;;;;;;;;;13.42;59.92;99112.06;4393177;32;20050;-89
2022/09/18 07:17:37;;;;;;;;;;;;;;;13.61;59.93;99125.84;4379088;32;19989;-89
2022/09/18 07:20:03;;;;;;;;;;;;;;;13.26;59.91;99103.38;4366336;32;21998;-88
2022/09/18 07:22:28;;;;;;;;;;;;;;;13.41;59.92;99113.84;4379094;32;19983;-89
2022/09/18 07:24:53;;;;;;;;;;;;;;;13.68;59.93;99118.50;4379302;32;20375;-88
2022/09/18 07:27:18;;;;;;;;;;;;;;;13.87;59.93;99120.94;4366143;32;19979;-89
2022/09/18 07:29:44;;;;;;;;;;;;;;;13.91;59.95;99114.59;4366575;32;19992;-89
2022/09/18 07:32:09;;;;;;;;;;;;;;;13.68;59.93;99137.66;4378844;32;19998;-90
2022/09/18 07:34:34;;;;;;;;;;;;;;;13.56;59.92;99132.25;4378459;32;25689;-89
2022/09/18 07:36:59;;;;;;;;;;;;;;;13.46;59.93;99126.66;4366093;32;20017;-88
2022/09/18 07:39:24;;;;;;;;;;;;;;;13.60;59.93;99136.38;4378429;32;26323;-88
2022/09/18 07:41:50;;;;;;;;;;;;;;;13.62;59.93;99137.97;4366438;32;19987;-87
2022/09/18 07:44:15;;;;;;;;;;;;;;;13.80;59.94;99131.75;4366384;32;20272;-88
2022/09/18 07:46:40;;;;;;;;;;;;;;;13.82;59.94;99140.34;4392243;32;20296;-88
2022/09/18 07:49:05;;;;;;;;;;;;;;;13.78;59.93;99141.47;4380454;32;19989;-88
2022/09/18 07:51:31;;;;;;;;;;;;;;;13.77;59.93;99137.16;4380631;32;20077;-88
2022/09/18 07:53:56;;;;;;;;;;;;;;;13.86;59.94;99138.41;4394845;32;20028;-88
2022/09/18 07:56:22;;;;;;;;;;;;;;;13.91;59.95;99156.47;4394335;32;19975;-89
2022/09/18 07:58:47;;;;;;;;;;;;;;;13.61;59.93;99146.75;4380787;32;19987;-88
2022/09/18 08:01:12;;;;;;;;;;;;;;;13.80;59.94;99154.44;4394223;32;20221;-87
2022/09/18 08:03:37;;;;;;;;;;;;;;;13.87;59.94;99147.09;4394606;32;19986;-88
2022/09/18 08:06:03;;;;;;;;;;;;;;;14.10;59.96;99162.37;4380860;32;20094;-88
2022/09/18 08:08:28;;;;;;;;;;;;;;;14.35;59.97;99173.16;4394817;32;19985;-87
2022/09/18 08:10:54;;;;;;;;;;;;;;;14.23;59.96;99155.53;4394656;32;20009;-89
2022/09/18 08:13:19;;;;;;;;;;;;;;;14.27;59.97;99164.06;4381124;32;20321;-90
2022/09/18 08:15:44;;;;;;;;;;;;;;;14.53;59.98;99160.00;4381047;32;20308;-89
2022/09/18 08:18:10;;;;;;;;;;;;;;;14.73;59.99;99181.50;4394818;32;19967;-88
2022/09/18 08:20:35;;;;;;;;;;;;;;;14.80;60.00;99173.25;4381240;32;19990;-89
2022/09/18 08:23:01;;;;;;;;;;;;;;;14.86;59.99;99167.66;4368522;32;19994;-89
2022/09/18 08:25:26;;;;;;;;;;;;;;;14.85;59.99;99176.44;4368867;32;19993;-89
2022/09/18 08:27:52;;;;;;;;;;;;;;;14.58;59.98;99174.50;4381409;32;19983;-90
2022/09/18 08:30:17;;;;;;;;;;;;;;;14.80;60.00;99163.63;4369464;32;20013;-89
2022/09/18 08:32:42;;;;;;;;;;;;;;;14.87;60.01;99159.69;4384248;32;20240;-88
2022/09/18 08:35:07;;;;;;;;;;;;;;;14.85;59.99;99165.97;4381376;32;20021;-90
2022/09/18 08:37:33;;;;;;;;;;;;;;;14.95;60.00;99170.59;4368285;32;20033;-89
2022/09/18 08:39:58;;;;;;;;;;;;;;;15.09;60.00;99159.28;4394555;32;19971;-89
2022/09/18 08:42:26;;;;;;;;;;;;;;;15.40;60.03;99163.53;4368422;32;20046;-89
2022/09/18 08:44:58;;;;;;;;;;;;;;;14.95;60.01;99167.97;4380827;32;20039;-88
2022/09/18 08:47:25;;;;;;;;;;;;;;;14.85;59.99;99164.19;4368268;32;19954;-89
2022/09/18 08:49:56;;;;;;;;;;;;;;;14.62;59.98;99169.94;4380929;32;20001;-89
2022/09/18 08:52:23;;;;;;;;;;;;;;;14.72;60.00;99186.81;4394496;32;20332;-89
2022/09/18 08:54:49;;;;;;;;;;;;;;;14.96;60.00;99174.91;4380758;32;19966;-89
2022/09/18 08:57:17;;;;;;;;;;;;;;;15.20;60.01;99182.25;4368169;32;19978;-88
2022/09/18 08:59:44;;;;;;;;;;;;;;;14.93;60.00;99172.47;4367063;32;20025;-89
2022/09/18 09:02:12;;;;;;;;;;;;;;;14.96;60.00;99202.88;4380869;32;20013;-89
2022/09/18 09:04:37;;;;;;;;;;;;;;;14.86;59.99;99188.62;4394450;32;20043;-89
2022/09/18 09:07:10;;;;;;;;;;;;;;;14.81;60.00;99198.53;4394412;32;19986;-89
2022/09/18 09:09:36;;;;;;;;;;;;;;;14.89;60.00;99198.91;4368161;32;19998;-90
2022/09/18 09:12:20;;;;;;;;;;;;;;;15.08;60.01;99182.97;4394485;32;19982;-89
2022/09/18 09:15:04;;;;;;;;;;;;;;;15.20;60.01;99190.09;4380826;32;20045;-88
2022/09/18 09:17:29;;;;;;;;;;;;;;;15.23;60.02;99182.91;4394669;32;19994;-89
2022/09/18 09:20:18;;;;;;;;;;;;;;;15.05;60.01;99200.56;4380396;32;20024;-88
2022/09/18 09:22:49;;;;;;;;;;;;;;;15.20;60.02;99188.31;4364581;32;20469;-89
2022/09/18 09:25:22;;;;;;;;;;;;;;;15.34;60.03;99192.72;4380880;32;19974;-89
2022/09/18 09:27:48;;;;;;;;;;;;;;;15.34;60.03;99179.63;4380984;32;19986;-89
2022/09/18 09:30:14;;;;;;;;;;;;;;;15.33;60.02;99188.41;4380882;32;20013;-89
2022/09/18 09:32:41;;;;;;;;;;;;;;;15.34;60.03;99190.94;4394438;32;19979;-90
2022/09/18 09:35:17;;;;;;;;;;;;;;;15.13;60.02;99173.03;4380399;32;20045;-89
2022/09/18 09:37:43;;;;;;;;;;;;;;;14.77;59.99;99200.50;4380468;32;20409;-89
2022/09/18 09:40:18;;;;;;;;;;;;;;;14.71;60.00;99187.75;4368062;32;20387;-89
2022/09/18 09:42:51;;;;;;;;;;;;;;;15.12;60.02;99184.47;4394568;32;19986;-90
2022/09/18 09:45:32;;;;;;;;;;;;;;;15.35;60.03;99200.50;4368365;32;19975;-88
2022/09/18 09:48:04;;;;;;;;;;;;;;;15.43;60.03;99200.06;4381244;32;19990;-89
2022/09/18 09:50:44;;;;;;;;;;;;;;;15.54;60.03;99200.22;4381350;32;19995;-89
2022/09/18 09:53:10;;;;;;;;;;;;;;;15.25;60.03;99207.25;4369758;32;19998;-89
2022/09/18 09:55:35;;;;;;;;;;;;;;;15.05;60.01;99207.56;4397410;32;20397;-89
2022/09/18 09:58:06;;;;;;;;;;;;;;;14.99;60.01;99223.66;4402024;32;19986;-89
2022/09/18 10:00:37;;;;;;;;;;;;;;;14.95;60.00;99209.06;4398052;32;19983;-88
2022/09/18 10:03:08;;;;;;;;;;;;;;;15.10;60.01;99212.53;4367754;32;20029;-89
2022/09/18 10:05:39;;;;;;;;;;;;;;;15.28;60.02;99214.09;4394234;32;19979;-89
2022/09/18 10:08:09;;;;;;;;;;;;;;;15.33;60.02;99222.50;4394158;32;20037;-90
2022/09/18 10:10:44;;;;;;;;;;;;;;;15.20;60.02;99219.78;4379811;32;20050;-89
2022/09/18 10:13:15;;;;;;;;;;;;;;;15.19;60.02;99212.84;4380310;32;20045;-89
2022/09/18 10:15:41;;;;;;;;;;;;;;;14.82;60.00;99237.75;4394121;32;19975;-89
2022/09/18 10:18:24;;;;;;;;;;;;;;;14.93;60.00;99230.13;4380184;32;19994;-89
2022/09/18 10:20:54;;;;;;;;;;;;;;;15.04;60.01;99219.84;4367568;32;19986;-89
2022/09/18 10:23:21;;;;;;;;;;;;;;;15.18;60.02;99226.91;4380248;32;19994;-89
2022/09/18 10:25:54;;;;;;;;;;;;;;;15.59;60.03;99218.34;4380054;32;20320;-89
2022/09/18 10:28:23;;;;;;;;;;;;;;;15.82;60.05;99211.69;4380259;32;19986;-89
2022/09/18 10:30:52;;;;;;;;;;;;;;;15.70;60.05;99213.31;4380527;32;19970;-89
2022/09/18 10:33:38;;;;;;;;;;;;;;;15.76;60.05;99223.41;4380612;32;19994;-89
2022/09/18 10:36:08;;;;;;;;;;;;;;;15.78;60.04;99220.69;4393353;32;20037;-88
2022/09/18 10:38:33;;;;;;;;;;;;;;;15.52;60.03;99217.00;4380230;32;19983;-89
2022/09/18 10:41:22;;;;;;;;;;;;;;;15.61;60.04;99226.97;4367566;32;20033;-89
2022/09/18 10:43:51;;;;;;;;;;;;;;;15.44;60.03;99214.84;4392723;32;20004;-90
2022/09/18 10:46:21;;;;;;;;;;;;;;;15.46;60.03;99217.38;4367257;32;20304;-89
2022/09/18 10:48:46;;;;;;;;;;;;;;;15.23;60.02;99222.22;4393625;32;19989;-89
2022/09/18 10:51:12;;;;;;;;;;;;;;;15.57;60.04;99214.94;4378966;32;19987;-88
2022/09/18 10:53:38;;;;;;;;;;;;;;;15.67;60.04;99212.66;4379800;32;19975;-87
2022/09/18 10:56:04;;;;;;;;;;;;;;;15.68;60.04;99212.56;4379712;32;20024;-88
2022/09/18 10:58:30;;;;;;;;;;;;;;;15.52;60.03;99223.09;4366745;32;20005;-87
2022/09/18 11:01:00;;;;;;;;;;;;;;;15.68;60.04;99225.66;4393317;32;19987;-87
2022/09/18 11:03:25;;;;;;;;;;;;;;;15.75;60.05;99220.88;4380198;32;19990;-88
2022/09/18 11:05:57;;;;;;;;;;;;;;;15.91;60.06;99221.63;4393468;32;20021;-88
2022/09/18 11:08:24;;;;;;;;;;;;;;;16.06;60.06;99223.28;4367781;32;19997;-87
2022/09/18 11:10:49;;;;;;;;;;;;;;;16.28;60.08;99217.50;4379916;32;19982;-88
2022/09/18 11:13:22;;;;;;;;;;;;;;;16.49;60.09;99215.28;4379921;32;19991;-86
2022/09/18 11:15:51;;;;;;;;;;;;;;;16.44;60.09;99226.09;4380343;32;19993;-89
2022/09/18 11:18:16;;;;;;;;;;;;;;;16.19;60.07;99224.22;4380809;32;20244;-88
2022/09/18 11:20:42;;;;;;;;;;;;;;;16.27;60.08;99224.56;4382107;32;19997;-89
2022/09/18 11:23:19;;;;;;;;;;;;;;;16.30;60.07;99228.75;4383525;32;20315;-86
2022/09/18 11:25:46;;;;;;;;;;;;;;;16.31;60.07;99229.59;4386131;32;20023;-87
2022/09/18 11:28:21;;;;;;;;;;;;;;;16.30;60.07;99225.28;4369432;32;19979;-87
2022/09/18 11:30:53;;;;;;;;;;;;;;;16.44;60.08;99217.38;4369246;32;19990;-87
2022/09/18 11:33:25;;;;;;;;;;;;;;;16.61;60.09;99221.56;4395421;32;20312;-88
2022/09/18 11:35:53;;;;;;;;;;;;;;;16.49;60.09;99210.03;4395129;32;20017;-89
2022/09/18 11:38:19;;;;;;;;;;;;;;;16.57;60.10;99207.78;4381437;32;20036;-88
2022/09/18 11:40:47;;;;;;;;;;;;;;;16.41;60.09;99221.06;4368806;32;20034;-89
2022/09/18 11:43:16;;;;;;;;;;;;;;;16.58;60.09;99214.72;4381678;32;20002;-89
2022/09/18 11:45:51;;;;;;;;;;;;;;;16.73;60.11;99207.63;4381492;32;20312;-88
2022/09/18 11:48:16;;;;;;;;;;;;;;;16.97;60.12;99215.69;4395020;32;19990;-87
2022/09/18 11:50:41;;;;;;;;;;;;;;;17.01;60.12;99210.09;4394790;32;20020;-89
2022/09/18 11:53:12;;;;;;;;;;;;;;;17.01;60.12;99206.63;4380885;32;19986;-87
2022/09/18 11:55:39;;;;;;;;;;;;;;;16.87;60.11;99195.28;4368360;32;20433;-89
2022/09/18 11:58:10;;;;;;;;;;;;;;;17.19;60.13;99200.16;4368171;32;19974;-87
2022/09/18 12:00:39;;;;;;;;;;;;;;;17.37;60.13;99198.91;4368192;32;20029;-88
2022/09/18 12:03:07;;;;;;;;;;;;;;;17.28;60.13;99199.53;4368039;32;19995;-88
2022/09/18 12:05:38;;;;;;;;;;;;;;;17.55;60.15;99211.75;4366855;32;19994;-89
2022/09/18 12:08:13;;;;;;;;;;;;;;;17.45;60.13;99188.69;4381044;32;19978;-89
2022/09/18 12:10:38;;;;;;;;;;;;;;;17.62;60.16;99184.87;4380533;32;20360;-90
2022/09/18 12:13:14;;;;;;;;;;;;;;;17.74;60.16;99164.78;4394702;32;20001;-89
2022/09/18 12:15:39;;;;;;;;;;;;;;;18.17;60.18;99180.16;4380771;32;19985;-86
2022/09/18 12:18:09;;;;;;;;;;;;;;;18.72;60.21;99189.34;4380401;32;19974;-88
2022/09/18 12:20:34;;;;;;;;;;;;;;;18.76;60.21;99181.06;4381072;32;20493;-89
2022/09/18 12:23:00;;;;;;;;;;;;;;;19.12;60.22;99187.16;4394773;32;20030;-89
2022/09/18 12:25:32;;;;;;;;;;;;;;;18.47;60.20;99183.22;4380867;32;20034;-87
2022/09/18 12:28:00;;;;;;;;;;;;;;;18.33;60.19;99180.72;4367662;32;20009;-89
2022/09/18 12:30:28;;;;;;;;;;;;;;;18.13;60.18;99176.06;4368457;32;20446;-89
2022/09/18 12:33:06;;;;;;;;;;;;;;;18.05;60.18;99177.47;4368357;32;20536;-88
2022/09/18 12:35:49;;;;;;;;;;;;;;;18.02;60.18;99167.16;4394730;32;20375;-88
2022/09/18 12:38:19;;;;;;;;;;;;;;;18.29;60.19;99180.13;4394809;32;20126;-89
2022/09/18 12:41:00;;;;;;;;;;;;;;;18.04;60.18;99186.31;4380649;32;20442;-87
2022/09/18 12:43:44;;;;;;;;;;;;;;;18.44;60.19;99179.94;4380722;32;20032;-89
2022/09/18 12:46:15;;;;;;;;;;;;;;;18.87;60.22;99167.91;4394902;32;19975;-86
2022/09/18 12:48:45;;;;;;;;;;;;;;;18.98;60.22;99180.31;4394908;32;20029;-88
2022/09/18 12:51:13;;;;;;;;;;;;;;;18.88;60.22;99171.38;4395734;32;20316;-88